sensor_id;sensor_type;location;lat;lon;timestamp;temperature;humidity
4090;DHT22;2059;48.538;12.146;2023-10-13T00:01:10;19.50;95.80
4090;DHT22;2059;48.538;12.146;2023-10-13T00:06:15;19.40;96.10
4090;DHT22;2059;48.538;12.146;2023-10-13T00:11:18;19.30;96.30
4090;DHT22;2059;48.538;12.146;2023-10-13T00:16:22;19.20;96.30
4090;DHT22;2059;48.538;12.146;2023-10-13T00:21:29;19.20;96.40
4090;DHT22;2059;48.538;12.146;2023-10-13T00:26:34;19.10;96.40
4090;DHT22;2059;48.538;12.146;2023-10-13T00:31:38;19.10;96.50
4090;DHT22;2059;48.538;12.146;2023-10-13T00:36:44;19.00;96.60
4090;DHT22;2059;48.538;12.146;2023-10-13T00:41:49;18.90;96.70
4090;DHT22;2059;48.538;12.146;2023-10-13T00:46:59;18.80;96.80
4090;DHT22;2059;48.538;12.146;2023-10-13T00:52:04;18.70;96.90
4090;DHT22;2059;48.538;12.146;2023-10-13T00:57:06;18.60;97.00
4090;DHT22;2059;48.538;12.146;2023-10-13T01:02:13;18.50;97.10
4090;DHT22;2059;48.538;12.146;2023-10-13T01:07:39;18.60;97.10
4090;DHT22;2059;48.538;12.146;2023-10-13T01:12:41;18.30;97.20
4090;DHT22;2059;48.538;12.146;2023-10-13T01:17:45;18.30;97.40
4090;DHT22;2059;48.538;12.146;2023-10-13T01:22:50;18.20;97.40
4090;DHT22;2059;48.538;12.146;2023-10-13T01:27:57;18.10;97.60
4090;DHT22;2059;48.538;12.146;2023-10-13T01:33:00;18.10;97.70
4090;DHT22;2059;48.538;12.146;2023-10-13T01:38:03;18.10;97.70
4090;DHT22;2059;48.538;12.146;2023-10-13T01:43:06;18.00;97.80
4090;DHT22;2059;48.538;12.146;2023-10-13T01:48:11;17.90;98.00
4090;DHT22;2059;48.538;12.146;2023-10-13T01:53:16;17.90;98.10
4090;DHT22;2059;48.538;12.146;2023-10-13T01:58:21;17.80;98.10
4090;DHT22;2059;48.538;12.146;2023-10-13T02:03:23;17.80;98.00
4090;DHT22;2059;48.538;12.146;2023-10-13T02:08:25;17.80;97.80
4090;DHT22;2059;48.538;12.146;2023-10-13T02:13:28;17.90;97.60
4090;DHT22;2059;48.538;12.146;2023-10-13T02:18:30;18.10;97.50
4090;DHT22;2059;48.538;12.146;2023-10-13T02:23:34;18.00;97.10
4090;DHT22;2059;48.538;12.146;2023-10-13T02:28:45;18.00;96.90
4090;DHT22;2059;48.538;12.146;2023-10-13T02:33:51;18.00;96.50
4090;DHT22;2059;48.538;12.146;2023-10-13T02:38:55;18.00;96.30
4090;DHT22;2059;48.538;12.146;2023-10-13T02:43:59;18.00;96.20
4090;DHT22;2059;48.538;12.146;2023-10-13T02:49:02;18.00;96.00
4090;DHT22;2059;48.538;12.146;2023-10-13T02:54:10;17.90;95.90
4090;DHT22;2059;48.538;12.146;2023-10-13T02:59:13;17.90;95.90
4090;DHT22;2059;48.538;12.146;2023-10-13T03:04:15;17.90;95.80
4090;DHT22;2059;48.538;12.146;2023-10-13T03:09:26;17.80;95.80
4090;DHT22;2059;48.538;12.146;2023-10-13T03:14:30;17.70;95.80
4090;DHT22;2059;48.538;12.146;2023-10-13T03:19:32;17.70;96.10
4090;DHT22;2059;48.538;12.146;2023-10-13T03:24:35;17.70;96.00
4090;DHT22;2059;48.538;12.146;2023-10-13T03:29:38;17.60;95.90
4090;DHT22;2059;48.538;12.146;2023-10-13T03:34:43;17.50;96.00
4090;DHT22;2059;48.538;12.146;2023-10-13T03:39:55;17.40;96.00
4090;DHT22;2059;48.538;12.146;2023-10-13T03:44:58;17.40;96.10
4090;DHT22;2059;48.538;12.146;2023-10-13T03:50:00;17.30;96.10
4090;DHT22;2059;48.538;12.146;2023-10-13T03:55:28;17.20;96.20
4090;DHT22;2059;48.538;12.146;2023-10-13T04:00:30;17.20;96.30
4090;DHT22;2059;48.538;12.146;2023-10-13T04:05:33;17.10;96.40
4090;DHT22;2059;48.538;12.146;2023-10-13T04:10:42;17.20;96.50
4090;DHT22;2059;48.538;12.146;2023-10-13T04:16:08;17.10;96.40
4090;DHT22;2059;48.538;12.146;2023-10-13T04:21:32;17.00;96.40
4090;DHT22;2059;48.538;12.146;2023-10-13T04:26:41;17.00;96.40
4090;DHT22;2059;48.538;12.146;2023-10-13T04:32:04;16.90;96.30
4090;DHT22;2059;48.538;12.146;2023-10-13T04:37:14;16.80;96.40
4090;DHT22;2059;48.538;12.146;2023-10-13T04:42:31;16.80;96.40
4090;DHT22;2059;48.538;12.146;2023-10-13T04:47:50;16.90;96.50
4090;DHT22;2059;48.538;12.146;2023-10-13T04:52:58;16.90;96.60
4090;DHT22;2059;48.538;12.146;2023-10-13T04:58:04;16.80;96.40
4090;DHT22;2059;48.538;12.146;2023-10-13T05:03:15;16.80;96.40
4090;DHT22;2059;48.538;12.146;2023-10-13T05:08:52;16.80;96.30
4090;DHT22;2059;48.538;12.146;2023-10-13T05:14:12;16.80;96.30
4090;DHT22;2059;48.538;12.146;2023-10-13T05:19:31;16.70;96.30
4090;DHT22;2059;48.538;12.146;2023-10-13T05:24:51;16.70;96.30
4090;DHT22;2059;48.538;12.146;2023-10-13T05:30:12;16.70;96.40
4090;DHT22;2059;48.538;12.146;2023-10-13T05:35:31;16.70;96.50
4090;DHT22;2059;48.538;12.146;2023-10-13T05:40:52;16.70;96.50
4090;DHT22;2059;48.538;12.146;2023-10-13T05:46:12;16.60;96.50
4090;DHT22;2059;48.538;12.146;2023-10-13T05:51:49;16.50;96.50
4090;DHT22;2059;48.538;12.146;2023-10-13T05:57:07;16.60;96.40
4090;DHT22;2059;48.538;12.146;2023-10-13T06:02:28;16.60;96.30
4090;DHT22;2059;48.538;12.146;2023-10-13T06:07:47;16.80;96.20
4090;DHT22;2059;48.538;12.146;2023-10-13T06:13:07;16.70;96.00
4090;DHT22;2059;48.538;12.146;2023-10-13T06:18:27;16.80;95.90
4090;DHT22;2059;48.538;12.146;2023-10-13T06:23:52;16.90;95.70
4090;DHT22;2059;48.538;12.146;2023-10-13T06:29:11;17.00;95.80
4090;DHT22;2059;48.538;12.146;2023-10-13T06:34:21;17.10;95.60
4090;DHT22;2059;48.538;12.146;2023-10-13T06:39:38;17.20;95.60
4090;DHT22;2059;48.538;12.146;2023-10-13T06:44:39;17.40;95.50
4090;DHT22;2059;48.538;12.146;2023-10-13T06:49:47;17.40;95.30
4090;DHT22;2059;48.538;12.146;2023-10-13T06:54:52;17.50;95.40
4090;DHT22;2059;48.538;12.146;2023-10-13T06:59:54;17.50;95.30
4090;DHT22;2059;48.538;12.146;2023-10-13T07:04:58;17.60;95.40
4090;DHT22;2059;48.538;12.146;2023-10-13T07:10:08;17.70;95.50
4090;DHT22;2059;48.538;12.146;2023-10-13T07:15:10;17.80;95.50
4090;DHT22;2059;48.538;12.146;2023-10-13T07:20:21;18.00;95.70
4090;DHT22;2059;48.538;12.146;2023-10-13T07:25:34;18.10;95.70
4090;DHT22;2059;48.538;12.146;2023-10-13T07:30:39;18.30;95.70
4090;DHT22;2059;48.538;12.146;2023-10-13T07:36:01;18.40;95.80
4090;DHT22;2059;48.538;12.146;2023-10-13T07:41:11;18.60;95.80
4090;DHT22;2059;48.538;12.146;2023-10-13T07:46:16;18.80;95.60
4090;DHT22;2059;48.538;12.146;2023-10-13T07:51:19;19.00;95.80
4090;DHT22;2059;48.538;12.146;2023-10-13T07:56:23;19.20;95.80
4090;DHT22;2059;48.538;12.146;2023-10-13T08:01:28;19.50;95.60
4090;DHT22;2059;48.538;12.146;2023-10-13T08:06:32;19.70;95.40
4090;DHT22;2059;48.538;12.146;2023-10-13T08:11:36;20.00;95.50
4090;DHT22;2059;48.538;12.146;2023-10-13T08:16:39;20.20;95.10
4090;DHT22;2059;48.538;12.146;2023-10-13T08:21:55;20.50;94.70
4090;DHT22;2059;48.538;12.146;2023-10-13T08:27:00;20.80;94.60
4090;DHT22;2059;48.538;12.146;2023-10-13T08:32:34;21.00;94.20
4090;DHT22;2059;48.538;12.146;2023-10-13T08:37:48;21.30;93.30
4090;DHT22;2059;48.538;12.146;2023-10-13T08:43:03;21.60;93.20
4090;DHT22;2059;48.538;12.146;2023-10-13T08:48:13;21.90;92.90
4090;DHT22;2059;48.538;12.146;2023-10-13T08:53:17;22.10;92.10
4090;DHT22;2059;48.538;12.146;2023-10-13T08:58:28;22.50;92.30
4090;DHT22;2059;48.538;12.146;2023-10-13T09:03:50;22.70;91.70
4090;DHT22;2059;48.538;12.146;2023-10-13T09:09:04;22.90;91.10
4090;DHT22;2059;48.538;12.146;2023-10-13T09:14:13;23.10;90.90
4090;DHT22;2059;48.538;12.146;2023-10-13T09:19:42;23.30;90.50
4090;DHT22;2059;48.538;12.146;2023-10-13T09:24:49;23.60;90.30
4090;DHT22;2059;48.538;12.146;2023-10-13T09:29:56;23.90;89.60
4090;DHT22;2059;48.538;12.146;2023-10-13T09:35:01;24.30;88.60
4090;DHT22;2059;48.538;12.146;2023-10-13T09:40:08;24.50;87.90
4090;DHT22;2059;48.538;12.146;2023-10-13T09:45:28;24.70;87.60
4090;DHT22;2059;48.538;12.146;2023-10-13T09:50:30;24.90;86.60
4090;DHT22;2059;48.538;12.146;2023-10-13T09:55:38;25.10;85.40
4090;DHT22;2059;48.538;12.146;2023-10-13T10:00:47;25.30;84.40
4090;DHT22;2059;48.538;12.146;2023-10-13T10:05:57;25.40;83.80
4090;DHT22;2059;48.538;12.146;2023-10-13T10:17:05;25.90;79.60
4090;DHT22;2059;48.538;12.146;2023-10-13T10:22:10;26.10;78.10
4090;DHT22;2059;48.538;12.146;2023-10-13T10:27:25;26.40;75.80
4090;DHT22;2059;48.538;12.146;2023-10-13T10:32:35;26.50;73.30
4090;DHT22;2059;48.538;12.146;2023-10-13T10:37:37;26.70;74.30
4090;DHT22;2059;48.538;12.146;2023-10-13T10:42:51;26.90;71.10
4090;DHT22;2059;48.538;12.146;2023-10-13T10:47:54;27.20;70.20
4090;DHT22;2059;48.538;12.146;2023-10-13T10:52:58;27.30;67.50
4090;DHT22;2059;48.538;12.146;2023-10-13T10:58:02;27.40;66.80
4090;DHT22;2059;48.538;12.146;2023-10-13T11:03:07;27.60;66.10
4090;DHT22;2059;48.538;12.146;2023-10-13T11:08:21;27.70;65.00
4090;DHT22;2059;48.538;12.146;2023-10-13T11:13:41;27.80;62.10
4090;DHT22;2059;48.538;12.146;2023-10-13T11:19:00;28.00;61.50
4090;DHT22;2059;48.538;12.146;2023-10-13T11:24:02;28.10;61.30
4090;DHT22;2059;48.538;12.146;2023-10-13T11:29:10;28.30;60.10
4090;DHT22;2059;48.538;12.146;2023-10-13T11:34:12;28.40;60.00
4090;DHT22;2059;48.538;12.146;2023-10-13T11:39:17;28.60;60.60
4090;DHT22;2059;48.538;12.146;2023-10-13T11:44:25;28.50;60.50
4090;DHT22;2059;48.538;12.146;2023-10-13T11:49:31;28.60;57.90
4090;DHT22;2059;48.538;12.146;2023-10-13T11:54:37;28.70;60.00
4090;DHT22;2059;48.538;12.146;2023-10-13T11:59:43;28.80;59.60
4090;DHT22;2059;48.538;12.146;2023-10-13T12:04:56;28.90;59.20
4090;DHT22;2059;48.538;12.146;2023-10-13T12:09:59;28.90;59.10
4090;DHT22;2059;48.538;12.146;2023-10-13T12:15:08;29.00;59.50
4090;DHT22;2059;48.538;12.146;2023-10-13T12:20:15;29.10;59.50
4090;DHT22;2059;48.538;12.146;2023-10-13T12:25:33;29.10;58.70
4090;DHT22;2059;48.538;12.146;2023-10-13T12:30:46;28.90;55.30
4090;DHT22;2059;48.538;12.146;2023-10-13T12:35:57;29.00;56.30
4090;DHT22;2059;48.538;12.146;2023-10-13T12:41:15;29.10;55.40
4090;DHT22;2059;48.538;12.146;2023-10-13T12:46:36;29.20;54.20
4090;DHT22;2059;48.538;12.146;2023-10-13T12:51:55;29.20;54.30
4090;DHT22;2059;48.538;12.146;2023-10-13T12:56:57;29.10;54.10
4090;DHT22;2059;48.538;12.146;2023-10-13T13:02:00;29.10;53.20
4090;DHT22;2059;48.538;12.146;2023-10-13T13:07:07;28.90;53.40
4090;DHT22;2059;48.538;12.146;2023-10-13T13:12:13;28.70;52.90
4090;DHT22;2059;48.538;12.146;2023-10-13T13:17:16;28.60;53.20
4090;DHT22;2059;48.538;12.146;2023-10-13T13:22:18;28.60;54.20
4090;DHT22;2059;48.538;12.146;2023-10-13T13:27:21;28.50;55.20
4090;DHT22;2059;48.538;12.146;2023-10-13T13:32:26;28.50;56.00
4090;DHT22;2059;48.538;12.146;2023-10-13T13:37:29;28.30;54.30
4090;DHT22;2059;48.538;12.146;2023-10-13T13:42:31;28.20;54.10
4090;DHT22;2059;48.538;12.146;2023-10-13T13:47:38;28.20;54.90
4090;DHT22;2059;48.538;12.146;2023-10-13T13:52:40;28.10;53.60
4090;DHT22;2059;48.538;12.146;2023-10-13T13:57:46;28.10;54.00
4090;DHT22;2059;48.538;12.146;2023-10-13T14:02:52;27.90;54.40
4090;DHT22;2059;48.538;12.146;2023-10-13T14:07:54;27.80;54.10
4090;DHT22;2059;48.538;12.146;2023-10-13T14:12:56;27.80;54.60
4090;DHT22;2059;48.538;12.146;2023-10-13T14:18:08;27.70;55.70
4090;DHT22;2059;48.538;12.146;2023-10-13T14:23:15;27.70;53.60
4090;DHT22;2059;48.538;12.146;2023-10-13T14:28:16;27.70;53.80
4090;DHT22;2059;48.538;12.146;2023-10-13T14:33:19;27.50;54.40
4090;DHT22;2059;48.538;12.146;2023-10-13T14:38:25;27.50;54.10
4090;DHT22;2059;48.538;12.146;2023-10-13T14:43:27;27.40;55.10
4090;DHT22;2059;48.538;12.146;2023-10-13T14:48:30;27.40;54.40
4090;DHT22;2059;48.538;12.146;2023-10-13T14:53:32;27.40;53.40
4090;DHT22;2059;48.538;12.146;2023-10-13T14:58:33;27.50;54.70
4090;DHT22;2059;48.538;12.146;2023-10-13T15:03:36;27.30;54.70
4090;DHT22;2059;48.538;12.146;2023-10-13T15:08:38;27.20;57.00
4090;DHT22;2059;48.538;12.146;2023-10-13T15:13:46;27.10;55.30
4090;DHT22;2059;48.538;12.146;2023-10-13T15:18:51;27.20;55.60
4090;DHT22;2059;48.538;12.146;2023-10-13T15:23:53;27.10;56.50
4090;DHT22;2059;48.538;12.146;2023-10-13T15:28:59;27.00;56.70
4090;DHT22;2059;48.538;12.146;2023-10-13T15:34:03;26.90;57.50
4090;DHT22;2059;48.538;12.146;2023-10-13T15:39:07;26.80;58.80
4090;DHT22;2059;48.538;12.146;2023-10-13T15:44:11;26.80;57.00
4090;DHT22;2059;48.538;12.146;2023-10-13T15:49:15;26.60;57.40
4090;DHT22;2059;48.538;12.146;2023-10-13T15:54:17;26.50;59.00
4090;DHT22;2059;48.538;12.146;2023-10-13T15:59:19;26.20;59.80
4090;DHT22;2059;48.538;12.146;2023-10-13T16:04:24;26.00;60.30
4090;DHT22;2059;48.538;12.146;2023-10-13T16:09:26;25.90;59.50
4090;DHT22;2059;48.538;12.146;2023-10-13T16:14:28;25.70;60.70
4090;DHT22;2059;48.538;12.146;2023-10-13T16:19:37;25.40;60.60
4090;DHT22;2059;48.538;12.146;2023-10-13T16:24:40;25.30;60.80
4090;DHT22;2059;48.538;12.146;2023-10-13T16:29:41;25.10;61.00
4090;DHT22;2059;48.538;12.146;2023-10-13T16:34:45;25.00;60.60
4090;DHT22;2059;48.538;12.146;2023-10-13T16:39:48;24.80;62.70
4090;DHT22;2059;48.538;12.146;2023-10-13T16:44:50;24.60;63.90
4090;DHT22;2059;48.538;12.146;2023-10-13T16:49:53;24.50;60.80
4090;DHT22;2059;48.538;12.146;2023-10-13T16:54:55;24.50;61.60
4090;DHT22;2059;48.538;12.146;2023-10-13T16:59:57;24.50;62.30
4090;DHT22;2059;48.538;12.146;2023-10-13T17:05:00;24.40;63.00
4090;DHT22;2059;48.538;12.146;2023-10-13T17:10:03;24.40;63.80
4090;DHT22;2059;48.538;12.146;2023-10-13T17:15:07;24.30;65.20
4090;DHT22;2059;48.538;12.146;2023-10-13T17:20:16;24.10;65.90
4090;DHT22;2059;48.538;12.146;2023-10-13T17:25:19;24.00;67.00
4090;DHT22;2059;48.538;12.146;2023-10-13T17:30:20;23.90;67.50
4090;DHT22;2059;48.538;12.146;2023-10-13T17:35:24;23.70;68.10
4090;DHT22;2059;48.538;12.146;2023-10-13T17:40:26;23.40;69.50
4090;DHT22;2059;48.538;12.146;2023-10-13T17:45:28;23.20;71.00
4090;DHT22;2059;48.538;12.146;2023-10-13T17:50:32;23.00;71.10
4090;DHT22;2059;48.538;12.146;2023-10-13T17:55:36;22.90;72.00
4090;DHT22;2059;48.538;12.146;2023-10-13T18:00:40;22.70;73.40
4090;DHT22;2059;48.538;12.146;2023-10-13T18:05:47;22.50;74.10
4090;DHT22;2059;48.538;12.146;2023-10-13T18:10:51;22.30;74.80
4090;DHT22;2059;48.538;12.146;2023-10-13T18:15:53;22.10;75.40
4090;DHT22;2059;48.538;12.146;2023-10-13T18:21:02;21.90;75.90
4090;DHT22;2059;48.538;12.146;2023-10-13T18:26:08;21.70;76.50
4090;DHT22;2059;48.538;12.146;2023-10-13T18:31:12;21.50;77.00
4090;DHT22;2059;48.538;12.146;2023-10-13T18:36:16;21.40;77.30
4090;DHT22;2059;48.538;12.146;2023-10-13T18:41:18;21.30;77.10
4090;DHT22;2059;48.538;12.146;2023-10-13T18:46:22;21.20;77.80
4090;DHT22;2059;48.538;12.146;2023-10-13T18:51:27;21.20;78.80
4090;DHT22;2059;48.538;12.146;2023-10-13T18:56:33;21.10;79.10
4090;DHT22;2059;48.538;12.146;2023-10-13T19:01:34;21.00;79.40
4090;DHT22;2059;48.538;12.146;2023-10-13T19:06:40;20.90;80.10
4090;DHT22;2059;48.538;12.146;2023-10-13T19:11:42;20.70;81.00
4090;DHT22;2059;48.538;12.146;2023-10-13T19:16:46;20.60;81.50
4090;DHT22;2059;48.538;12.146;2023-10-13T19:21:49;20.50;82.00
4090;DHT22;2059;48.538;12.146;2023-10-13T19:26:52;20.40;83.40
4090;DHT22;2059;48.538;12.146;2023-10-13T19:31:54;20.20;83.50
4090;DHT22;2059;48.538;12.146;2023-10-13T19:36:57;20.10;83.20
4090;DHT22;2059;48.538;12.146;2023-10-13T19:42:04;20.00;83.40
4090;DHT22;2059;48.538;12.146;2023-10-13T19:47:07;19.90;83.70
4090;DHT22;2059;48.538;12.146;2023-10-13T19:52:15;19.80;83.70
4090;DHT22;2059;48.538;12.146;2023-10-13T19:57:22;19.80;84.30
4090;DHT22;2059;48.538;12.146;2023-10-13T20:02:24;19.60;84.00
4090;DHT22;2059;48.538;12.146;2023-10-13T20:07:28;19.60;84.20
4090;DHT22;2059;48.538;12.146;2023-10-13T20:12:30;19.50;83.50
4090;DHT22;2059;48.538;12.146;2023-10-13T20:17:32;19.30;84.00
4090;DHT22;2059;48.538;12.146;2023-10-13T20:22:35;19.30;83.70
4090;DHT22;2059;48.538;12.146;2023-10-13T20:27:40;19.40;83.70
4090;DHT22;2059;48.538;12.146;2023-10-13T20:32:42;19.40;84.40
4090;DHT22;2059;48.538;12.146;2023-10-13T20:37:47;19.40;84.70
4090;DHT22;2059;48.538;12.146;2023-10-13T20:42:50;19.40;85.00
4090;DHT22;2059;48.538;12.146;2023-10-13T20:47:52;19.40;85.10
4090;DHT22;2059;48.538;12.146;2023-10-13T20:52:56;19.30;85.50
4090;DHT22;2059;48.538;12.146;2023-10-13T20:57:58;19.20;85.70
4090;DHT22;2059;48.538;12.146;2023-10-13T21:02:59;19.10;85.80
4090;DHT22;2059;48.538;12.146;2023-10-13T21:08:04;19.00;86.10
4090;DHT22;2059;48.538;12.146;2023-10-13T21:13:05;18.90;85.90
4090;DHT22;2059;48.538;12.146;2023-10-13T21:18:09;18.90;86.10
4090;DHT22;2059;48.538;12.146;2023-10-13T21:23:12;18.90;86.10
4090;DHT22;2059;48.538;12.146;2023-10-13T21:28:13;18.80;85.90
4090;DHT22;2059;48.538;12.146;2023-10-13T21:33:15;18.80;85.90
4090;DHT22;2059;48.538;12.146;2023-10-13T21:38:19;18.80;86.00
4090;DHT22;2059;48.538;12.146;2023-10-13T21:43:21;18.70;86.20
4090;DHT22;2059;48.538;12.146;2023-10-13T21:48:25;18.70;86.20
4090;DHT22;2059;48.538;12.146;2023-10-13T21:53:28;18.70;86.30
4090;DHT22;2059;48.538;12.146;2023-10-13T21:58:30;18.60;86.40
4090;DHT22;2059;48.538;12.146;2023-10-13T22:03:32;18.60;86.50
4090;DHT22;2059;48.538;12.146;2023-10-13T22:08:36;18.60;86.60
4090;DHT22;2059;48.538;12.146;2023-10-13T22:13:38;18.50;86.50
4090;DHT22;2059;48.538;12.146;2023-10-13T22:18:43;18.50;86.60
4090;DHT22;2059;48.538;12.146;2023-10-13T22:23:46;18.40;86.80
4090;DHT22;2059;48.538;12.146;2023-10-13T22:28:49;18.30;86.90
4090;DHT22;2059;48.538;12.146;2023-10-13T22:33:52;18.20;86.80
4090;DHT22;2059;48.538;12.146;2023-10-13T22:38:56;18.20;86.60
4090;DHT22;2059;48.538;12.146;2023-10-13T22:43:59;18.10;86.30
4090;DHT22;2059;48.538;12.146;2023-10-13T22:49:00;18.10;86.60
4090;DHT22;2059;48.538;12.146;2023-10-13T22:54:04;18.10;87.40
4090;DHT22;2059;48.538;12.146;2023-10-13T22:59:06;18.00;88.70
4090;DHT22;2059;48.538;12.146;2023-10-13T23:04:12;18.00;88.70
4090;DHT22;2059;48.538;12.146;2023-10-13T23:09:17;17.90;89.30
4090;DHT22;2059;48.538;12.146;2023-10-13T23:14:27;17.80;89.70
4090;DHT22;2059;48.538;12.146;2023-10-13T23:19:29;17.70;90.00
4090;DHT22;2059;48.538;12.146;2023-10-13T23:24:36;17.70;90.20
4090;DHT22;2059;48.538;12.146;2023-10-13T23:29:38;17.60;90.30
4090;DHT22;2059;48.538;12.146;2023-10-13T23:34:40;17.60;90.40
4090;DHT22;2059;48.538;12.146;2023-10-13T23:39:43;17.40;90.40
4090;DHT22;2059;48.538;12.146;2023-10-13T23:44:45;17.40;90.50
4090;DHT22;2059;48.538;12.146;2023-10-13T23:49:48;17.40;90.50
4090;DHT22;2059;48.538;12.146;2023-10-13T23:54:52;17.40;90.40
4090;DHT22;2059;48.538;12.146;2023-10-13T23:59:56;17.30;90.40
